sensor_id;sensor_type;location;lat;lon;timestamp;temperature;humidity
42019;DHT22;27703;51.980;5.848;2023-12-29T00:01:45;11.00;99.90
42019;DHT22;27703;51.980;5.848;2023-12-29T00:04:10;11.00;99.90
42019;DHT22;27703;51.980;5.848;2023-12-29T00:06:40;11.00;99.90
42019;DHT22;27703;51.980;5.848;2023-12-29T00:09:05;11.10;99.90
42019;DHT22;27703;51.980;5.848;2023-12-29T00:11:31;11.10;99.90
42019;DHT22;27703;51.980;5.848;2023-12-29T00:13:57;11.10;99.90
42019;DHT22;27703;51.980;5.848;2023-12-29T00:16:22;11.10;99.90
42019;DHT22;27703;51.980;5.848;2023-12-29T00:18:48;11.10;99.90
42019;DHT22;27703;51.980;5.848;2023-12-29T00:21:13;11.10;99.90
42019;DHT22;27703;51.980;5.848;2023-12-29T00:23:39;11.10;99.90
42019;DHT22;27703;51.980;5.848;2023-12-29T00:26:04;11.10;99.90
42019;DHT22;27703;51.980;5.848;2023-12-29T00:28:30;11.10;99.90
42019;DHT22;27703;51.980;5.848;2023-12-29T00:30:56;11.00;99.90
42019;DHT22;27703;51.980;5.848;2023-12-29T00:33:21;10.80;99.90
42019;DHT22;27703;51.980;5.848;2023-12-29T00:35:47;10.70;99.90
42019;DHT22;27703;51.980;5.848;2023-12-29T00:38:12;10.70;99.90
42019;DHT22;27703;51.980;5.848;2023-12-29T00:40:38;10.60;99.90
42019;DHT22;27703;51.980;5.848;2023-12-29T00:43:03;10.70;99.90
42019;DHT22;27703;51.980;5.848;2023-12-29T00:45:29;10.70;99.90
42019;DHT22;27703;51.980;5.848;2023-12-29T00:47:58;10.70;99.90
42019;DHT22;27703;51.980;5.848;2023-12-29T00:50:24;10.70;99.90
42019;DHT22;27703;51.980;5.848;2023-12-29T00:52:50;10.70;99.90
42019;DHT22;27703;51.980;5.848;2023-12-29T00:55:15;10.70;99.90
42019;DHT22;27703;51.980;5.848;2023-12-29T00:57:41;10.80;99.90
42019;DHT22;27703;51.980;5.848;2023-12-29T01:00:10;10.80;99.90
42019;DHT22;27703;51.980;5.848;2023-12-29T01:02:36;10.80;99.90
42019;DHT22;27703;51.980;5.848;2023-12-29T01:05:01;10.90;99.90
42019;DHT22;27703;51.980;5.848;2023-12-29T01:07:27;10.90;99.90
42019;DHT22;27703;51.980;5.848;2023-12-29T01:09:52;10.90;99.90
42019;DHT22;27703;51.980;5.848;2023-12-29T01:12:18;10.90;99.90
42019;DHT22;27703;51.980;5.848;2023-12-29T01:14:43;10.90;99.90
42019;DHT22;27703;51.980;5.848;2023-12-29T01:17:09;10.90;99.90
42019;DHT22;27703;51.980;5.848;2023-12-29T01:19:34;10.90;99.90
42019;DHT22;27703;51.980;5.848;2023-12-29T01:22:00;10.90;99.90
42019;DHT22;27703;51.980;5.848;2023-12-29T01:24:25;10.90;99.90
42019;DHT22;27703;51.980;5.848;2023-12-29T01:26:51;10.90;99.90
42019;DHT22;27703;51.980;5.848;2023-12-29T01:29:20;10.90;99.90
42019;DHT22;27703;51.980;5.848;2023-12-29T01:31:45;10.90;99.90
42019;DHT22;27703;51.980;5.848;2023-12-29T01:34:11;10.80;99.90
42019;DHT22;27703;51.980;5.848;2023-12-29T01:36:36;10.80;99.90
42019;DHT22;27703;51.980;5.848;2023-12-29T01:39:02;10.80;99.90
42019;DHT22;27703;51.980;5.848;2023-12-29T01:41:29;10.80;99.90
42019;DHT22;27703;51.980;5.848;2023-12-29T01:46:26;10.80;99.90
42019;DHT22;27703;51.980;5.848;2023-12-29T01:48:53;10.70;99.90
42019;DHT22;27703;51.980;5.848;2023-12-29T01:51:21;10.70;99.90
42019;DHT22;27703;51.980;5.848;2023-12-29T01:53:49;10.70;99.90
42019;DHT22;27703;51.980;5.848;2023-12-29T01:56:15;10.60;99.90
42019;DHT22;27703;51.980;5.848;2023-12-29T01:58:40;10.70;99.90
42019;DHT22;27703;51.980;5.848;2023-12-29T02:01:07;10.70;99.90
42019;DHT22;27703;51.980;5.848;2023-12-29T02:03:33;10.70;99.90
42019;DHT22;27703;51.980;5.848;2023-12-29T02:05:59;10.70;99.90
42019;DHT22;27703;51.980;5.848;2023-12-29T02:08:25;10.70;99.90
42019;DHT22;27703;51.980;5.848;2023-12-29T02:10:51;10.70;99.90
42019;DHT22;27703;51.980;5.848;2023-12-29T02:13:16;10.70;99.90
42019;DHT22;27703;51.980;5.848;2023-12-29T02:15:42;10.70;99.90
42019;DHT22;27703;51.980;5.848;2023-12-29T02:18:12;10.70;99.90
42019;DHT22;27703;51.980;5.848;2023-12-29T02:20:41;10.70;99.90
42019;DHT22;27703;51.980;5.848;2023-12-29T02:23:06;10.70;99.90
42019;DHT22;27703;51.980;5.848;2023-12-29T02:25:32;10.70;99.90
42019;DHT22;27703;51.980;5.848;2023-12-29T02:28:19;10.60;99.90
42019;DHT22;27703;51.980;5.848;2023-12-29T02:33:18;10.40;99.90
42019;DHT22;27703;51.980;5.848;2023-12-29T02:35:45;10.40;99.90
42019;DHT22;27703;51.980;5.848;2023-12-29T02:38:11;10.40;99.90
42019;DHT22;27703;51.980;5.848;2023-12-29T02:40:38;10.40;99.90
42019;DHT22;27703;51.980;5.848;2023-12-29T02:43:04;10.40;99.90
42019;DHT22;27703;51.980;5.848;2023-12-29T02:45:29;10.40;99.90
42019;DHT22;27703;51.980;5.848;2023-12-29T02:47:55;10.40;99.90
42019;DHT22;27703;51.980;5.848;2023-12-29T02:50:20;10.40;99.90
42019;DHT22;27703;51.980;5.848;2023-12-29T02:52:46;10.40;99.90
42019;DHT22;27703;51.980;5.848;2023-12-29T02:55:11;10.40;99.90
42019;DHT22;27703;51.980;5.848;2023-12-29T02:57:38;10.40;99.90
42019;DHT22;27703;51.980;5.848;2023-12-29T03:00:04;10.40;99.90
42019;DHT22;27703;51.980;5.848;2023-12-29T03:02:30;10.40;99.90
42019;DHT22;27703;51.980;5.848;2023-12-29T03:04:56;10.40;99.90
42019;DHT22;27703;51.980;5.848;2023-12-29T03:07:21;10.40;99.90
42019;DHT22;27703;51.980;5.848;2023-12-29T03:09:47;10.50;99.90
42019;DHT22;27703;51.980;5.848;2023-12-29T03:12:13;10.40;99.90
42019;DHT22;27703;51.980;5.848;2023-12-29T03:14:38;10.50;99.90
42019;DHT22;27703;51.980;5.848;2023-12-29T03:17:04;10.50;99.90
42019;DHT22;27703;51.980;5.848;2023-12-29T03:19:29;10.40;99.90
42019;DHT22;27703;51.980;5.848;2023-12-29T03:21:55;10.40;99.90
42019;DHT22;27703;51.980;5.848;2023-12-29T03:24:21;10.40;99.90
42019;DHT22;27703;51.980;5.848;2023-12-29T03:26:46;10.50;99.90
42019;DHT22;27703;51.980;5.848;2023-12-29T03:29:12;10.50;99.90
42019;DHT22;27703;51.980;5.848;2023-12-29T03:31:37;10.50;99.90
42019;DHT22;27703;51.980;5.848;2023-12-29T03:34:04;10.50;99.90
42019;DHT22;27703;51.980;5.848;2023-12-29T03:36:30;10.50;99.90
42019;DHT22;27703;51.980;5.848;2023-12-29T03:38:56;10.60;99.90
42019;DHT22;27703;51.980;5.848;2023-12-29T03:41:21;10.50;99.90
42019;DHT22;27703;51.980;5.848;2023-12-29T03:43:47;10.50;99.90
42019;DHT22;27703;51.980;5.848;2023-12-29T03:46:19;10.60;99.90
42019;DHT22;27703;51.980;5.848;2023-12-29T03:48:45;10.60;99.90
42019;DHT22;27703;51.980;5.848;2023-12-29T03:51:11;10.60;99.90
42019;DHT22;27703;51.980;5.848;2023-12-29T03:53:37;10.60;99.90
42019;DHT22;27703;51.980;5.848;2023-12-29T03:56:07;10.60;99.90
42019;DHT22;27703;51.980;5.848;2023-12-29T03:58:33;10.70;99.90
42019;DHT22;27703;51.980;5.848;2023-12-29T04:00:59;10.70;99.90
42019;DHT22;27703;51.980;5.848;2023-12-29T04:03:24;10.70;99.90
42019;DHT22;27703;51.980;5.848;2023-12-29T04:05:50;10.70;99.90
42019;DHT22;27703;51.980;5.848;2023-12-29T04:08:15;10.70;99.90
42019;DHT22;27703;51.980;5.848;2023-12-29T04:10:41;10.70;99.90
42019;DHT22;27703;51.980;5.848;2023-12-29T04:13:06;10.70;99.90
42019;DHT22;27703;51.980;5.848;2023-12-29T04:15:32;10.80;99.90
42019;DHT22;27703;51.980;5.848;2023-12-29T04:17:57;10.80;99.90
42019;DHT22;27703;51.980;5.848;2023-12-29T04:20:23;10.80;99.90
42019;DHT22;27703;51.980;5.848;2023-12-29T04:22:49;10.80;99.90
42019;DHT22;27703;51.980;5.848;2023-12-29T04:25:15;10.80;99.90
42019;DHT22;27703;51.980;5.848;2023-12-29T04:27:41;10.80;99.90
42019;DHT22;27703;51.980;5.848;2023-12-29T04:30:07;10.80;99.90
42019;DHT22;27703;51.980;5.848;2023-12-29T04:32:33;10.80;99.90
42019;DHT22;27703;51.980;5.848;2023-12-29T04:34:58;10.80;99.90
42019;DHT22;27703;51.980;5.848;2023-12-29T04:37:24;10.80;99.90
42019;DHT22;27703;51.980;5.848;2023-12-29T04:39:50;10.70;99.90
42019;DHT22;27703;51.980;5.848;2023-12-29T04:42:15;10.70;99.90
42019;DHT22;27703;51.980;5.848;2023-12-29T04:44:43;10.70;99.90
42019;DHT22;27703;51.980;5.848;2023-12-29T04:47:08;10.70;99.90
42019;DHT22;27703;51.980;5.848;2023-12-29T04:49:34;10.80;99.90
42019;DHT22;27703;51.980;5.848;2023-12-29T04:52:00;10.80;99.90
42019;DHT22;27703;51.980;5.848;2023-12-29T04:54:25;10.80;99.90
42019;DHT22;27703;51.980;5.848;2023-12-29T04:56:51;10.80;99.90
42019;DHT22;27703;51.980;5.848;2023-12-29T04:59:17;10.90;99.90
42019;DHT22;27703;51.980;5.848;2023-12-29T05:01:42;10.90;99.90
42019;DHT22;27703;51.980;5.848;2023-12-29T05:04:08;10.80;99.90
42019;DHT22;27703;51.980;5.848;2023-12-29T05:06:33;10.80;99.90
42019;DHT22;27703;51.980;5.848;2023-12-29T05:08:59;10.80;99.90
42019;DHT22;27703;51.980;5.848;2023-12-29T05:11:25;10.80;99.90
42019;DHT22;27703;51.980;5.848;2023-12-29T05:13:50;10.80;99.90
42019;DHT22;27703;51.980;5.848;2023-12-29T05:16:16;10.80;99.90
42019;DHT22;27703;51.980;5.848;2023-12-29T05:18:42;10.80;99.90
42019;DHT22;27703;51.980;5.848;2023-12-29T05:21:14;10.80;99.90
42019;DHT22;27703;51.980;5.848;2023-12-29T05:23:41;10.80;99.90
42019;DHT22;27703;51.980;5.848;2023-12-29T05:26:06;10.80;99.90
42019;DHT22;27703;51.980;5.848;2023-12-29T05:28:32;10.80;99.90
42019;DHT22;27703;51.980;5.848;2023-12-29T05:30:57;10.70;99.90
42019;DHT22;27703;51.980;5.848;2023-12-29T05:33:24;10.70;99.90
42019;DHT22;27703;51.980;5.848;2023-12-29T05:35:50;10.70;99.90
42019;DHT22;27703;51.980;5.848;2023-12-29T05:38:15;10.70;99.90
42019;DHT22;27703;51.980;5.848;2023-12-29T05:40:41;10.70;99.90
42019;DHT22;27703;51.980;5.848;2023-12-29T05:43:06;10.70;99.90
42019;DHT22;27703;51.980;5.848;2023-12-29T05:45:32;10.70;99.90
42019;DHT22;27703;51.980;5.848;2023-12-29T05:47:57;10.70;99.90
42019;DHT22;27703;51.980;5.848;2023-12-29T05:50:23;10.70;99.90
42019;DHT22;27703;51.980;5.848;2023-12-29T05:52:49;10.70;99.90
42019;DHT22;27703;51.980;5.848;2023-12-29T05:55:17;10.60;99.90
42019;DHT22;27703;51.980;5.848;2023-12-29T05:57:43;10.60;99.90
42019;DHT22;27703;51.980;5.848;2023-12-29T06:00:10;10.60;99.90
42019;DHT22;27703;51.980;5.848;2023-12-29T06:02:42;10.60;99.90
42019;DHT22;27703;51.980;5.848;2023-12-29T06:05:11;10.60;99.90
42019;DHT22;27703;51.980;5.848;2023-12-29T06:07:37;10.60;99.90
42019;DHT22;27703;51.980;5.848;2023-12-29T06:10:03;10.50;99.90
42019;DHT22;27703;51.980;5.848;2023-12-29T06:12:29;10.60;99.90
42019;DHT22;27703;51.980;5.848;2023-12-29T06:14:55;10.60;99.90
42019;DHT22;27703;51.980;5.848;2023-12-29T06:17:20;10.60;99.90
42019;DHT22;27703;51.980;5.848;2023-12-29T06:19:46;10.60;99.90
42019;DHT22;27703;51.980;5.848;2023-12-29T06:22:11;10.50;99.90
42019;DHT22;27703;51.980;5.848;2023-12-29T06:24:42;10.50;99.90
42019;DHT22;27703;51.980;5.848;2023-12-29T06:27:08;10.50;99.90
42019;DHT22;27703;51.980;5.848;2023-12-29T06:29:34;10.50;99.90
42019;DHT22;27703;51.980;5.848;2023-12-29T06:32:00;10.40;99.90
42019;DHT22;27703;51.980;5.848;2023-12-29T06:34:25;10.50;99.90
42019;DHT22;27703;51.980;5.848;2023-12-29T06:36:51;10.50;99.90
42019;DHT22;27703;51.980;5.848;2023-12-29T06:39:17;10.40;99.90
42019;DHT22;27703;51.980;5.848;2023-12-29T06:41:43;10.50;99.90
42019;DHT22;27703;51.980;5.848;2023-12-29T06:44:08;10.50;99.90
42019;DHT22;27703;51.980;5.848;2023-12-29T06:46:36;10.50;99.90
42019;DHT22;27703;51.980;5.848;2023-12-29T06:49:02;10.50;99.90
42019;DHT22;27703;51.980;5.848;2023-12-29T06:51:28;10.50;99.90
42019;DHT22;27703;51.980;5.848;2023-12-29T06:53:54;10.50;99.90
42019;DHT22;27703;51.980;5.848;2023-12-29T06:56:20;10.50;99.90
42019;DHT22;27703;51.980;5.848;2023-12-29T06:58:46;10.50;99.90
42019;DHT22;27703;51.980;5.848;2023-12-29T07:01:12;10.50;99.90
42019;DHT22;27703;51.980;5.848;2023-12-29T07:03:37;10.50;99.90
42019;DHT22;27703;51.980;5.848;2023-12-29T07:06:03;10.50;99.90
42019;DHT22;27703;51.980;5.848;2023-12-29T07:08:29;10.40;99.90
42019;DHT22;27703;51.980;5.848;2023-12-29T07:10:55;10.40;99.90
42019;DHT22;27703;51.980;5.848;2023-12-29T07:13:20;10.30;99.90
42019;DHT22;27703;51.980;5.848;2023-12-29T07:15:49;10.20;99.90
42019;DHT22;27703;51.980;5.848;2023-12-29T07:18:15;10.20;99.90
42019;DHT22;27703;51.980;5.848;2023-12-29T07:20:41;10.00;99.90
42019;DHT22;27703;51.980;5.848;2023-12-29T07:23:07;10.00;99.90
42019;DHT22;27703;51.980;5.848;2023-12-29T07:25:32;9.90;99.90
42019;DHT22;27703;51.980;5.848;2023-12-29T07:27:58;9.80;99.90
42019;DHT22;27703;51.980;5.848;2023-12-29T07:30:24;9.70;99.90
42019;DHT22;27703;51.980;5.848;2023-12-29T07:32:49;9.80;99.90
42019;DHT22;27703;51.980;5.848;2023-12-29T07:35:15;9.70;99.90
42019;DHT22;27703;51.980;5.848;2023-12-29T07:37:45;9.70;99.90
42019;DHT22;27703;51.980;5.848;2023-12-29T07:40:11;9.70;99.90
42019;DHT22;27703;51.980;5.848;2023-12-29T07:42:39;9.70;99.90
42019;DHT22;27703;51.980;5.848;2023-12-29T07:45:05;9.70;99.90
42019;DHT22;27703;51.980;5.848;2023-12-29T07:47:31;9.70;99.90
42019;DHT22;27703;51.980;5.848;2023-12-29T07:49:57;9.70;99.90
42019;DHT22;27703;51.980;5.848;2023-12-29T07:52:22;9.70;99.90
42019;DHT22;27703;51.980;5.848;2023-12-29T07:54:48;9.70;99.90
42019;DHT22;27703;51.980;5.848;2023-12-29T07:57:14;9.70;99.90
42019;DHT22;27703;51.980;5.848;2023-12-29T07:59:40;9.70;99.90
42019;DHT22;27703;51.980;5.848;2023-12-29T08:02:06;9.70;99.90
42019;DHT22;27703;51.980;5.848;2023-12-29T08:04:31;9.70;99.90
42019;DHT22;27703;51.980;5.848;2023-12-29T08:06:57;9.70;99.90
42019;DHT22;27703;51.980;5.848;2023-12-29T08:09:22;9.70;99.90
42019;DHT22;27703;51.980;5.848;2023-12-29T08:11:49;9.70;99.90
42019;DHT22;27703;51.980;5.848;2023-12-29T08:14:14;9.70;99.90
42019;DHT22;27703;51.980;5.848;2023-12-29T08:16:40;9.70;99.90
42019;DHT22;27703;51.980;5.848;2023-12-29T08:19:06;9.70;99.90
42019;DHT22;27703;51.980;5.848;2023-12-29T08:21:32;9.70;99.90
42019;DHT22;27703;51.980;5.848;2023-12-29T08:23:58;9.80;99.90
42019;DHT22;27703;51.980;5.848;2023-12-29T08:26:24;9.80;99.90
42019;DHT22;27703;51.980;5.848;2023-12-29T08:28:50;9.80;99.90
42019;DHT22;27703;51.980;5.848;2023-12-29T08:31:15;9.80;99.90
42019;DHT22;27703;51.980;5.848;2023-12-29T08:33:41;9.80;99.90
42019;DHT22;27703;51.980;5.848;2023-12-29T08:36:10;9.80;99.90
42019;DHT22;27703;51.980;5.848;2023-12-29T08:38:36;9.90;99.90
42019;DHT22;27703;51.980;5.848;2023-12-29T08:41:02;10.00;99.90
42019;DHT22;27703;51.980;5.848;2023-12-29T08:43:28;9.90;99.90
42019;DHT22;27703;51.980;5.848;2023-12-29T08:45:53;9.90;99.90
42019;DHT22;27703;51.980;5.848;2023-12-29T08:48:19;10.00;99.90
42019;DHT22;27703;51.980;5.848;2023-12-29T08:50:45;10.00;99.90
42019;DHT22;27703;51.980;5.848;2023-12-29T08:53:10;10.00;99.90
42019;DHT22;27703;51.980;5.848;2023-12-29T08:55:36;10.10;99.90
42019;DHT22;27703;51.980;5.848;2023-12-29T08:58:02;10.10;99.90
42019;DHT22;27703;51.980;5.848;2023-12-29T09:00:27;10.10;99.90
42019;DHT22;27703;51.980;5.848;2023-12-29T09:02:56;10.10;99.90
42019;DHT22;27703;51.980;5.848;2023-12-29T09:05:21;10.10;99.90
42019;DHT22;27703;51.980;5.848;2023-12-29T09:07:47;10.20;99.90
42019;DHT22;27703;51.980;5.848;2023-12-29T09:10:13;10.20;99.90
42019;DHT22;27703;51.980;5.848;2023-12-29T09:12:40;10.20;99.90
42019;DHT22;27703;51.980;5.848;2023-12-29T09:15:06;10.20;99.90
42019;DHT22;27703;51.980;5.848;2023-12-29T09:17:32;10.20;99.90
42019;DHT22;27703;51.980;5.848;2023-12-29T09:19:57;10.20;99.90
42019;DHT22;27703;51.980;5.848;2023-12-29T09:22:23;10.20;99.90
42019;DHT22;27703;51.980;5.848;2023-12-29T09:24:48;10.20;99.90
42019;DHT22;27703;51.980;5.848;2023-12-29T09:27:14;10.30;99.90
42019;DHT22;27703;51.980;5.848;2023-12-29T09:29:40;10.30;99.90
42019;DHT22;27703;51.980;5.848;2023-12-29T09:32:06;10.40;99.90
42019;DHT22;27703;51.980;5.848;2023-12-29T09:34:31;10.30;99.90
42019;DHT22;27703;51.980;5.848;2023-12-29T09:36:57;10.30;99.90
42019;DHT22;27703;51.980;5.848;2023-12-29T09:39:22;10.40;99.90
42019;DHT22;27703;51.980;5.848;2023-12-29T09:41:51;10.40;99.90
42019;DHT22;27703;51.980;5.848;2023-12-29T09:44:20;10.40;99.90
42019;DHT22;27703;51.980;5.848;2023-12-29T09:46:52;10.40;99.90
42019;DHT22;27703;51.980;5.848;2023-12-29T09:49:19;10.40;99.90
42019;DHT22;27703;51.980;5.848;2023-12-29T09:51:45;10.40;99.90
42019;DHT22;27703;51.980;5.848;2023-12-29T09:54:12;10.40;99.90
42019;DHT22;27703;51.980;5.848;2023-12-29T09:56:39;10.40;99.90
42019;DHT22;27703;51.980;5.848;2023-12-29T09:59:06;10.40;99.90
42019;DHT22;27703;51.980;5.848;2023-12-29T10:01:34;10.40;99.90
42019;DHT22;27703;51.980;5.848;2023-12-29T10:04:00;10.50;99.90
42019;DHT22;27703;51.980;5.848;2023-12-29T10:06:26;10.50;99.90
42019;DHT22;27703;51.980;5.848;2023-12-29T10:08:57;10.50;99.90
42019;DHT22;27703;51.980;5.848;2023-12-29T10:11:24;10.60;99.90
42019;DHT22;27703;51.980;5.848;2023-12-29T10:13:53;10.60;99.90
42019;DHT22;27703;51.980;5.848;2023-12-29T10:16:35;10.60;99.90
42019;DHT22;27703;51.980;5.848;2023-12-29T10:22:11;10.70;99.90
42019;DHT22;27703;51.980;5.848;2023-12-29T10:24:40;10.70;99.90
42019;DHT22;27703;51.980;5.848;2023-12-29T10:27:09;10.70;99.90
42019;DHT22;27703;51.980;5.848;2023-12-29T10:29:34;10.70;99.90
42019;DHT22;27703;51.980;5.848;2023-12-29T10:32:00;10.70;99.90
42019;DHT22;27703;51.980;5.848;2023-12-29T10:34:25;10.70;99.90
42019;DHT22;27703;51.980;5.848;2023-12-29T10:36:58;10.70;99.90
42019;DHT22;27703;51.980;5.848;2023-12-29T10:39:25;10.70;99.90
42019;DHT22;27703;51.980;5.848;2023-12-29T10:42:05;10.70;99.90
42019;DHT22;27703;51.980;5.848;2023-12-29T10:44:35;10.70;99.90
42019;DHT22;27703;51.980;5.848;2023-12-29T10:47:12;10.80;99.90
42019;DHT22;27703;51.980;5.848;2023-12-29T10:49:39;10.90;99.90
42019;DHT22;27703;51.980;5.848;2023-12-29T10:52:12;10.90;99.90
42019;DHT22;27703;51.980;5.848;2023-12-29T10:54:39;11.00;99.90
42019;DHT22;27703;51.980;5.848;2023-12-29T10:57:05;11.00;99.90
42019;DHT22;27703;51.980;5.848;2023-12-29T10:59:31;11.00;99.90
42019;DHT22;27703;51.980;5.848;2023-12-29T11:01:56;11.10;99.90
42019;DHT22;27703;51.980;5.848;2023-12-29T11:04:22;11.10;99.90
42019;DHT22;27703;51.980;5.848;2023-12-29T11:06:48;11.10;99.90
42019;DHT22;27703;51.980;5.848;2023-12-29T11:09:33;11.10;99.90
42019;DHT22;27703;51.980;5.848;2023-12-29T11:12:01;11.10;99.90
42019;DHT22;27703;51.980;5.848;2023-12-29T11:14:27;11.10;99.90
42019;DHT22;27703;51.980;5.848;2023-12-29T11:16:54;11.10;99.90
42019;DHT22;27703;51.980;5.848;2023-12-29T11:19:21;11.00;99.90
42019;DHT22;27703;51.980;5.848;2023-12-29T11:21:48;11.10;99.90
42019;DHT22;27703;51.980;5.848;2023-12-29T11:24:14;11.10;99.90
42019;DHT22;27703;51.980;5.848;2023-12-29T11:26:40;11.20;99.90
42019;DHT22;27703;51.980;5.848;2023-12-29T11:29:08;11.30;99.90
42019;DHT22;27703;51.980;5.848;2023-12-29T11:31:33;11.30;99.90
42019;DHT22;27703;51.980;5.848;2023-12-29T11:34:10;11.40;99.90
42019;DHT22;27703;51.980;5.848;2023-12-29T11:36:41;11.40;99.90
42019;DHT22;27703;51.980;5.848;2023-12-29T11:39:24;11.40;99.90
42019;DHT22;27703;51.980;5.848;2023-12-29T11:44:24;11.40;99.90
42019;DHT22;27703;51.980;5.848;2023-12-29T11:46:52;11.40;99.90
42019;DHT22;27703;51.980;5.848;2023-12-29T11:49:17;11.30;99.90
42019;DHT22;27703;51.980;5.848;2023-12-29T11:51:46;11.40;99.90
42019;DHT22;27703;51.980;5.848;2023-12-29T11:54:40;11.40;99.90
42019;DHT22;27703;51.980;5.848;2023-12-29T11:57:08;11.40;99.90
42019;DHT22;27703;51.980;5.848;2023-12-29T11:59:46;11.40;99.90
42019;DHT22;27703;51.980;5.848;2023-12-29T12:02:27;11.40;99.90
42019;DHT22;27703;51.980;5.848;2023-12-29T12:04:53;11.40;99.90
42019;DHT22;27703;51.980;5.848;2023-12-29T12:09:47;11.30;99.90
42019;DHT22;27703;51.980;5.848;2023-12-29T12:12:37;11.30;99.90
42019;DHT22;27703;51.980;5.848;2023-12-29T12:15:00;11.30;99.90
42019;DHT22;27703;51.980;5.848;2023-12-29T12:17:33;11.30;99.90
42019;DHT22;27703;51.980;5.848;2023-12-29T12:20:09;11.30;99.90
42019;DHT22;27703;51.980;5.848;2023-12-29T12:22:36;11.40;99.90
42019;DHT22;27703;51.980;5.848;2023-12-29T12:25:02;11.30;99.90
42019;DHT22;27703;51.980;5.848;2023-12-29T12:27:29;11.40;99.90
42019;DHT22;27703;51.980;5.848;2023-12-29T12:29:59;11.40;99.90
42019;DHT22;27703;51.980;5.848;2023-12-29T12:32:29;11.40;99.90
42019;DHT22;27703;51.980;5.848;2023-12-29T12:34:55;11.40;99.90
42019;DHT22;27703;51.980;5.848;2023-12-29T12:37:22;11.40;99.90
42019;DHT22;27703;51.980;5.848;2023-12-29T12:39:48;11.40;99.90
42019;DHT22;27703;51.980;5.848;2023-12-29T12:42:16;11.40;99.90
42019;DHT22;27703;51.980;5.848;2023-12-29T12:44:56;11.40;99.90
42019;DHT22;27703;51.980;5.848;2023-12-29T12:47:42;11.40;99.90
42019;DHT22;27703;51.980;5.848;2023-12-29T12:50:13;11.40;99.90
42019;DHT22;27703;51.980;5.848;2023-12-29T12:52:39;11.40;99.90
42019;DHT22;27703;51.980;5.848;2023-12-29T12:55:06;11.40;99.90
42019;DHT22;27703;51.980;5.848;2023-12-29T12:57:33;11.40;99.90
42019;DHT22;27703;51.980;5.848;2023-12-29T13:00:00;11.40;99.90
42019;DHT22;27703;51.980;5.848;2023-12-29T13:02:27;11.30;99.90
42019;DHT22;27703;51.980;5.848;2023-12-29T13:04:54;11.30;99.90
42019;DHT22;27703;51.980;5.848;2023-12-29T13:07:20;11.30;99.90
42019;DHT22;27703;51.980;5.848;2023-12-29T13:09:47;11.30;99.90
42019;DHT22;27703;51.980;5.848;2023-12-29T13:12:15;11.30;99.90
42019;DHT22;27703;51.980;5.848;2023-12-29T13:14:45;11.30;99.90
42019;DHT22;27703;51.980;5.848;2023-12-29T13:17:15;11.30;99.90
42019;DHT22;27703;51.980;5.848;2023-12-29T13:19:42;11.30;99.90
42019;DHT22;27703;51.980;5.848;2023-12-29T13:22:10;11.30;99.90
42019;DHT22;27703;51.980;5.848;2023-12-29T13:24:43;11.30;99.90
42019;DHT22;27703;51.980;5.848;2023-12-29T13:27:09;11.20;99.90
42019;DHT22;27703;51.980;5.848;2023-12-29T13:29:35;11.20;99.90
42019;DHT22;27703;51.980;5.848;2023-12-29T13:32:21;11.20;99.90
42019;DHT22;27703;51.980;5.848;2023-12-29T13:40:16;11.20;99.90
42019;DHT22;27703;51.980;5.848;2023-12-29T13:42:45;11.20;99.90
42019;DHT22;27703;51.980;5.848;2023-12-29T13:45:14;11.20;99.90
42019;DHT22;27703;51.980;5.848;2023-12-29T13:47:41;11.20;99.90
42019;DHT22;27703;51.980;5.848;2023-12-29T13:50:09;11.10;99.90
42019;DHT22;27703;51.980;5.848;2023-12-29T13:52:38;11.10;99.90
42019;DHT22;27703;51.980;5.848;2023-12-29T13:55:04;11.10;99.90
42019;DHT22;27703;51.980;5.848;2023-12-29T13:57:35;11.10;99.90
42019;DHT22;27703;51.980;5.848;2023-12-29T14:00:17;11.10;99.90
42019;DHT22;27703;51.980;5.848;2023-12-29T14:05:32;11.10;99.90
42019;DHT22;27703;51.980;5.848;2023-12-29T14:08:08;11.10;99.90
42019;DHT22;27703;51.980;5.848;2023-12-29T14:10:36;11.10;99.90
42019;DHT22;27703;51.980;5.848;2023-12-29T14:13:08;11.10;99.90
42019;DHT22;27703;51.980;5.848;2023-12-29T14:15:35;11.10;99.90
42019;DHT22;27703;51.980;5.848;2023-12-29T14:18:04;11.10;99.90
42019;DHT22;27703;51.980;5.848;2023-12-29T14:20:35;11.10;99.90
42019;DHT22;27703;51.980;5.848;2023-12-29T14:23:02;11.10;99.90
42019;DHT22;27703;51.980;5.848;2023-12-29T14:25:28;11.10;99.90
42019;DHT22;27703;51.980;5.848;2023-12-29T14:27:54;11.10;99.90
42019;DHT22;27703;51.980;5.848;2023-12-29T14:30:19;11.10;99.90
42019;DHT22;27703;51.980;5.848;2023-12-29T14:32:45;11.00;99.90
42019;DHT22;27703;51.980;5.848;2023-12-29T14:35:12;11.00;99.90
42019;DHT22;27703;51.980;5.848;2023-12-29T14:37:38;11.00;99.90
42019;DHT22;27703;51.980;5.848;2023-12-29T14:40:03;11.00;99.90
42019;DHT22;27703;51.980;5.848;2023-12-29T14:42:30;11.00;99.90
42019;DHT22;27703;51.980;5.848;2023-12-29T14:44:56;10.90;99.90
42019;DHT22;27703;51.980;5.848;2023-12-29T14:47:21;10.90;99.90
42019;DHT22;27703;51.980;5.848;2023-12-29T14:49:47;10.80;99.90
42019;DHT22;27703;51.980;5.848;2023-12-29T14:52:13;10.70;99.90
42019;DHT22;27703;51.980;5.848;2023-12-29T14:54:38;10.60;99.90
42019;DHT22;27703;51.980;5.848;2023-12-29T14:57:05;10.50;99.90
42019;DHT22;27703;51.980;5.848;2023-12-29T14:59:31;10.40;99.90
42019;DHT22;27703;51.980;5.848;2023-12-29T15:01:56;10.30;99.90
42019;DHT22;27703;51.980;5.848;2023-12-29T15:04:22;10.30;99.90
42019;DHT22;27703;51.980;5.848;2023-12-29T15:06:47;10.30;99.90
42019;DHT22;27703;51.980;5.848;2023-12-29T15:09:13;10.30;99.90
42019;DHT22;27703;51.980;5.848;2023-12-29T15:11:38;10.30;99.90
42019;DHT22;27703;51.980;5.848;2023-12-29T15:14:04;10.30;99.90
42019;DHT22;27703;51.980;5.848;2023-12-29T15:16:30;10.30;99.90
42019;DHT22;27703;51.980;5.848;2023-12-29T15:18:55;10.20;99.90
42019;DHT22;27703;51.980;5.848;2023-12-29T15:21:21;10.20;99.90
42019;DHT22;27703;51.980;5.848;2023-12-29T15:23:46;10.20;99.90
42019;DHT22;27703;51.980;5.848;2023-12-29T15:26:12;10.20;99.90
42019;DHT22;27703;51.980;5.848;2023-12-29T15:28:40;10.30;99.90
42019;DHT22;27703;51.980;5.848;2023-12-29T15:31:07;10.30;99.90
42019;DHT22;27703;51.980;5.848;2023-12-29T15:33:32;10.30;99.90
42019;DHT22;27703;51.980;5.848;2023-12-29T15:35:58;10.30;99.90
42019;DHT22;27703;51.980;5.848;2023-12-29T15:38:24;10.30;99.90
42019;DHT22;27703;51.980;5.848;2023-12-29T15:40:49;10.20;99.90
42019;DHT22;27703;51.980;5.848;2023-12-29T15:43:15;10.30;99.90
42019;DHT22;27703;51.980;5.848;2023-12-29T15:45:40;10.20;99.90
42019;DHT22;27703;51.980;5.848;2023-12-29T15:48:06;10.20;99.90
42019;DHT22;27703;51.980;5.848;2023-12-29T15:50:32;10.20;99.90
42019;DHT22;27703;51.980;5.848;2023-12-29T15:52:57;10.20;99.90